sensor_id;sensor_type;location;lat;lon;timestamp;pressure;altitude;pressure_sealevel;temperature;humidity
19596;BME280;9945;46.010;8.946;2023-04-02T00:00:13;96252.81;;;14.16;32.11
19596;BME280;9945;46.010;8.946;2023-04-02T00:02:54;96254.47;;;14.23;32.10
19596;BME280;9945;46.010;8.946;2023-04-02T00:05:40;96248.56;;;14.21;32.33
19596;BME280;9945;46.010;8.946;2023-04-02T00:08:22;96255.72;;;14.27;31.94
19596;BME280;9945;46.010;8.946;2023-04-02T00:10:53;96245.56;;;14.24;31.26
19596;BME280;9945;46.010;8.946;2023-04-02T00:13:28;96248.72;;;14.07;31.69
19596;BME280;9945;46.010;8.946;2023-04-02T00:15:58;96250.78;;;14.11;31.79
19596;BME280;9945;46.010;8.946;2023-04-02T00:18:28;96249.91;;;14.04;31.46
19596;BME280;9945;46.010;8.946;2023-04-02T00:21:04;96249.16;;;14.10;31.43
19596;BME280;9945;46.010;8.946;2023-04-02T00:23:35;96243.91;;;14.17;30.75
19596;BME280;9945;46.010;8.946;2023-04-02T00:26:17;96247.53;;;14.16;31.59
19596;BME280;9945;46.010;8.946;2023-04-02T00:28:47;96249.34;;;14.09;30.77
19596;BME280;9945;46.010;8.946;2023-04-02T00:31:16;96243.47;;;14.13;31.66
19596;BME280;9945;46.010;8.946;2023-04-02T00:33:44;96244.44;;;14.06;30.86
19596;BME280;9945;46.010;8.946;2023-04-02T00:36:12;96240.63;;;14.08;31.00
19596;BME280;9945;46.010;8.946;2023-04-02T00:38:40;96242.66;;;14.13;32.32
19596;BME280;9945;46.010;8.946;2023-04-02T00:41:13;96239.22;;;14.12;31.92
19596;BME280;9945;46.010;8.946;2023-04-02T00:43:43;96244.22;;;14.00;32.60
19596;BME280;9945;46.010;8.946;2023-04-02T00:46:14;96240.47;;;14.16;32.35
19596;BME280;9945;46.010;8.946;2023-04-02T00:48:45;96240.91;;;14.20;32.11
19596;BME280;9945;46.010;8.946;2023-04-02T00:51:19;96249.34;;;14.09;33.11
19596;BME280;9945;46.010;8.946;2023-04-02T00:53:49;96246.91;;;14.14;32.49
19596;BME280;9945;46.010;8.946;2023-04-02T00:56:23;96248.53;;;14.08;32.65
19596;BME280;9945;46.010;8.946;2023-04-02T00:58:53;96258.34;;;13.93;32.54
19596;BME280;9945;46.010;8.946;2023-04-02T01:01:24;96258.38;;;13.99;32.35
19596;BME280;9945;46.010;8.946;2023-04-02T01:03:56;96254.22;;;14.12;32.88
19596;BME280;9945;46.010;8.946;2023-04-02T01:06:25;96259.44;;;14.05;33.21
19596;BME280;9945;46.010;8.946;2023-04-02T01:09:11;96250.94;;;14.03;32.77
19596;BME280;9945;46.010;8.946;2023-04-02T01:12:13;96257.13;;;13.95;32.18
19596;BME280;9945;46.010;8.946;2023-04-02T01:14:52;96254.88;;;13.86;33.14
19596;BME280;9945;46.010;8.946;2023-04-02T01:17:31;96254.47;;;13.89;32.07
19596;BME280;9945;46.010;8.946;2023-04-02T01:20:37;96257.56;;;13.99;32.08
19596;BME280;9945;46.010;8.946;2023-04-02T01:23:11;96268.84;;;13.86;32.64
19596;BME280;9945;46.010;8.946;2023-04-02T01:25:44;96260.72;;;13.88;33.02
19596;BME280;9945;46.010;8.946;2023-04-02T01:28:16;96262.41;;;13.95;32.16
19596;BME280;9945;46.010;8.946;2023-04-02T01:30:48;96264.66;;;13.98;32.91
19596;BME280;9945;46.010;8.946;2023-04-02T01:33:17;96262.34;;;13.89;32.88
19596;BME280;9945;46.010;8.946;2023-04-02T01:35:50;96265.44;;;13.92;32.34
19596;BME280;9945;46.010;8.946;2023-04-02T01:38:22;96263.22;;;13.96;32.64
19596;BME280;9945;46.010;8.946;2023-04-02T01:40:57;96273.44;;;13.78;32.84
19596;BME280;9945;46.010;8.946;2023-04-02T01:43:30;96275.13;;;13.92;32.86
19596;BME280;9945;46.010;8.946;2023-04-02T01:46:04;96275.56;;;13.95;33.90
19596;BME280;9945;46.010;8.946;2023-04-02T01:48:31;96277.31;;;13.88;32.91
19596;BME280;9945;46.010;8.946;2023-04-02T01:50:59;96283.03;;;13.92;33.83
19596;BME280;9945;46.010;8.946;2023-04-02T01:53:30;96286.03;;;13.89;32.26
19596;BME280;9945;46.010;8.946;2023-04-02T01:56:00;96292.38;;;13.94;33.63
19596;BME280;9945;46.010;8.946;2023-04-02T01:58:30;96279.81;;;13.96;33.12
19596;BME280;9945;46.010;8.946;2023-04-02T02:01:01;96296.19;;;13.92;31.97
19596;BME280;9945;46.010;8.946;2023-04-02T02:03:30;96302.47;;;13.91;31.88
19596;BME280;9945;46.010;8.946;2023-04-02T02:05:58;96311.13;;;13.85;32.42
19596;BME280;9945;46.010;8.946;2023-04-02T02:08:31;96300.19;;;13.88;33.40
19596;BME280;9945;46.010;8.946;2023-04-02T02:10:59;96307.03;;;13.82;32.74
19596;BME280;9945;46.010;8.946;2023-04-02T02:13:27;96305.28;;;13.89;32.25
19596;BME280;9945;46.010;8.946;2023-04-02T02:15:56;96306.22;;;13.82;32.63
19596;BME280;9945;46.010;8.946;2023-04-02T02:18:26;96303.09;;;13.72;33.67
19596;BME280;9945;46.010;8.946;2023-04-02T02:20:56;96309.63;;;13.76;31.57
19596;BME280;9945;46.010;8.946;2023-04-02T02:23:24;96306.19;;;13.75;33.26
19596;BME280;9945;46.010;8.946;2023-04-02T02:25:54;96320.66;;;13.86;32.75
19596;BME280;9945;46.010;8.946;2023-04-02T02:28:22;96317.13;;;13.79;32.95
19596;BME280;9945;46.010;8.946;2023-04-02T02:30:53;96318.16;;;13.78;32.14
19596;BME280;9945;46.010;8.946;2023-04-02T02:33:25;96330.03;;;13.74;31.65
19596;BME280;9945;46.010;8.946;2023-04-02T02:35:56;96329.59;;;13.70;32.09
19596;BME280;9945;46.010;8.946;2023-04-02T02:38:40;96329.78;;;13.90;31.87
19596;BME280;9945;46.010;8.946;2023-04-02T02:41:16;96323.31;;;13.92;32.35
19596;BME280;9945;46.010;8.946;2023-04-02T02:43:51;96323.50;;;13.91;32.68
19596;BME280;9945;46.010;8.946;2023-04-02T02:46:21;96325.22;;;13.77;33.09
19596;BME280;9945;46.010;8.946;2023-04-02T02:48:51;96319.63;;;13.87;31.90
19596;BME280;9945;46.010;8.946;2023-04-02T02:51:24;96335.13;;;13.75;32.48
19596;BME280;9945;46.010;8.946;2023-04-02T02:53:55;96338.00;;;13.80;32.37
19596;BME280;9945;46.010;8.946;2023-04-02T02:56:24;96342.97;;;13.69;33.27
19596;BME280;9945;46.010;8.946;2023-04-02T02:58:53;96343.09;;;13.60;33.46
19596;BME280;9945;46.010;8.946;2023-04-02T03:01:20;96341.94;;;13.70;33.13
19596;BME280;9945;46.010;8.946;2023-04-02T03:03:47;96346.50;;;13.61;31.77
19596;BME280;9945;46.010;8.946;2023-04-02T03:06:19;96338.44;;;13.62;33.42
19596;BME280;9945;46.010;8.946;2023-04-02T03:08:50;96356.34;;;13.74;33.23
19596;BME280;9945;46.010;8.946;2023-04-02T03:11:25;96359.22;;;13.79;32.67
19596;BME280;9945;46.010;8.946;2023-04-02T03:13:59;96357.63;;;13.78;31.50
19596;BME280;9945;46.010;8.946;2023-04-02T03:16:33;96355.84;;;13.85;31.61
19596;BME280;9945;46.010;8.946;2023-04-02T03:19:08;96361.72;;;13.87;31.56
19596;BME280;9945;46.010;8.946;2023-04-02T03:21:43;96356.13;;;13.69;31.30
19596;BME280;9945;46.010;8.946;2023-04-02T03:24:17;96361.41;;;13.54;31.81
19596;BME280;9945;46.010;8.946;2023-04-02T03:26:50;96352.47;;;13.70;32.70
19596;BME280;9945;46.010;8.946;2023-04-02T03:29:22;96364.69;;;13.77;33.11
19596;BME280;9945;46.010;8.946;2023-04-02T03:31:55;96362.44;;;13.74;32.17
19596;BME280;9945;46.010;8.946;2023-04-02T03:34:25;96363.44;;;13.73;32.04
19596;BME280;9945;46.010;8.946;2023-04-02T03:36:58;96367.13;;;13.57;32.96
19596;BME280;9945;46.010;8.946;2023-04-02T03:39:32;96372.34;;;13.51;31.87
19596;BME280;9945;46.010;8.946;2023-04-02T03:42:06;96364.44;;;13.51;31.65
19596;BME280;9945;46.010;8.946;2023-04-02T03:44:38;96374.56;;;13.54;33.24
19596;BME280;9945;46.010;8.946;2023-04-02T03:47:13;96386.72;;;13.55;32.20
19596;BME280;9945;46.010;8.946;2023-04-02T03:49:46;96387.28;;;13.50;32.59
19596;BME280;9945;46.010;8.946;2023-04-02T03:52:20;96380.06;;;13.38;33.81
19596;BME280;9945;46.010;8.946;2023-04-02T03:54:48;96385.59;;;13.43;33.44
19596;BME280;9945;46.010;8.946;2023-04-02T03:57:23;96378.00;;;13.54;33.27
19596;BME280;9945;46.010;8.946;2023-04-02T03:59:57;96385.59;;;13.43;32.42
19596;BME280;9945;46.010;8.946;2023-04-02T04:02:37;96386.06;;;13.32;32.20
19596;BME280;9945;46.010;8.946;2023-04-02T04:05:13;96390.22;;;13.41;32.43
19596;BME280;9945;46.010;8.946;2023-04-02T04:07:45;96386.72;;;13.55;32.51
19596;BME280;9945;46.010;8.946;2023-04-02T04:10:17;96393.72;;;13.48;32.82
19596;BME280;9945;46.010;8.946;2023-04-02T04:12:46;96390.03;;;13.42;33.20
19596;BME280;9945;46.010;8.946;2023-04-02T04:15:19;96389.66;;;13.45;32.53
19596;BME280;9945;46.010;8.946;2023-04-02T04:17:53;96393.97;;;13.53;32.61
19596;BME280;9945;46.010;8.946;2023-04-02T04:20:29;96402.19;;;13.43;33.55
19596;BME280;9945;46.010;8.946;2023-04-02T04:23:09;96396.34;;;13.27;33.06
19596;BME280;9945;46.010;8.946;2023-04-02T04:25:37;96400.28;;;13.37;31.32
19596;BME280;9945;46.010;8.946;2023-04-02T04:28:19;96408.06;;;13.45;32.10
19596;BME280;9945;46.010;8.946;2023-04-02T04:30:51;96409.28;;;13.28;33.84
19596;BME280;9945;46.010;8.946;2023-04-02T04:33:29;96415.34;;;13.29;32.48
19596;BME280;9945;46.010;8.946;2023-04-02T04:36:05;96422.00;;;13.24;33.18
19596;BME280;9945;46.010;8.946;2023-04-02T04:38:48;96428.69;;;13.12;31.96
19596;BME280;9945;46.010;8.946;2023-04-02T04:41:22;96433.78;;;13.14;35.93
19596;BME280;9945;46.010;8.946;2023-04-02T04:43:53;96435.84;;;13.04;37.87
19596;BME280;9945;46.010;8.946;2023-04-02T04:46:26;96426.97;;;12.90;38.16
19596;BME280;9945;46.010;8.946;2023-04-02T04:48:58;96429.16;;;12.86;36.17
19596;BME280;9945;46.010;8.946;2023-04-02T04:51:30;96431.31;;;13.12;33.13
19596;BME280;9945;46.010;8.946;2023-04-02T04:54:00;96435.50;;;13.07;33.78
19596;BME280;9945;46.010;8.946;2023-04-02T04:56:29;96443.28;;;13.00;39.13
19596;BME280;9945;46.010;8.946;2023-04-02T04:59:00;96448.78;;;12.61;41.20
19596;BME280;9945;46.010;8.946;2023-04-02T05:01:32;96454.44;;;12.35;41.70
19596;BME280;9945;46.010;8.946;2023-04-02T05:04:09;96460.97;;;12.39;43.09
19596;BME280;9945;46.010;8.946;2023-04-02T05:06:40;96450.38;;;12.33;41.50
19596;BME280;9945;46.010;8.946;2023-04-02T05:09:14;96455.41;;;12.20;41.63
19596;BME280;9945;46.010;8.946;2023-04-02T05:11:46;96462.59;;;12.03;42.69
19596;BME280;9945;46.010;8.946;2023-04-02T05:14:20;96471.88;;;12.13;40.29
19596;BME280;9945;46.010;8.946;2023-04-02T05:16:54;96472.31;;;12.17;40.83
19596;BME280;9945;46.010;8.946;2023-04-02T05:19:27;96467.25;;;12.16;40.85
19596;BME280;9945;46.010;8.946;2023-04-02T05:22:01;96471.16;;;12.20;41.93
19596;BME280;9945;46.010;8.946;2023-04-02T05:24:43;96467.06;;;12.17;41.45
19596;BME280;9945;46.010;8.946;2023-04-02T05:27:22;96469.16;;;12.59;38.42
19596;BME280;9945;46.010;8.946;2023-04-02T05:29:56;96474.31;;;12.52;37.16
19596;BME280;9945;46.010;8.946;2023-04-02T05:32:28;96486.19;;;12.48;39.52
19596;BME280;9945;46.010;8.946;2023-04-02T05:34:57;96484.06;;;12.44;40.56
19596;BME280;9945;46.010;8.946;2023-04-02T05:37:28;96487.41;;;12.38;42.06
19596;BME280;9945;46.010;8.946;2023-04-02T05:39:59;96490.88;;;12.53;41.32
19596;BME280;9945;46.010;8.946;2023-04-02T05:42:35;96498.19;;;12.43;41.22
19596;BME280;9945;46.010;8.946;2023-04-02T05:45:12;96504.06;;;12.45;42.91
19596;BME280;9945;46.010;8.946;2023-04-02T05:47:41;96502.50;;;12.36;44.65
19596;BME280;9945;46.010;8.946;2023-04-02T05:50:20;96505.09;;;12.21;44.51
19596;BME280;9945;46.010;8.946;2023-04-02T05:52:54;96503.19;;;12.15;44.35
19596;BME280;9945;46.010;8.946;2023-04-02T05:55:33;96509.75;;;12.11;45.09
19596;BME280;9945;46.010;8.946;2023-04-02T05:58:04;96505.66;;;12.08;46.44
19596;BME280;9945;46.010;8.946;2023-04-02T06:00:49;96515.81;;;12.11;45.31
19596;BME280;9945;46.010;8.946;2023-04-02T06:03:23;96510.28;;;12.06;45.66
19596;BME280;9945;46.010;8.946;2023-04-02T06:05:57;96505.66;;;12.08;45.12
19596;BME280;9945;46.010;8.946;2023-04-02T06:08:30;96518.38;;;12.20;46.35
19596;BME280;9945;46.010;8.946;2023-04-02T06:11:06;96510.00;;;12.24;45.83
19596;BME280;9945;46.010;8.946;2023-04-02T06:13:34;96518.72;;;12.17;47.57
19596;BME280;9945;46.010;8.946;2023-04-02T06:16:01;96513.44;;;12.25;47.02
19596;BME280;9945;46.010;8.946;2023-04-02T06:18:29;96522.78;;;12.42;45.62
19596;BME280;9945;46.010;8.946;2023-04-02T06:20:59;96526.53;;;12.47;46.25
19596;BME280;9945;46.010;8.946;2023-04-02T06:23:30;96522.06;;;12.71;46.12
19596;BME280;9945;46.010;8.946;2023-04-02T06:26:02;96523.63;;;12.95;46.64
19596;BME280;9945;46.010;8.946;2023-04-02T06:28:35;96529.03;;;13.16;44.49
19596;BME280;9945;46.010;8.946;2023-04-02T06:31:07;96529.03;;;13.45;42.95
19596;BME280;9945;46.010;8.946;2023-04-02T06:33:35;96527.50;;;13.51;44.38
19596;BME280;9945;46.010;8.946;2023-04-02T06:36:03;96533.63;;;13.73;44.80
19596;BME280;9945;46.010;8.946;2023-04-02T06:38:31;96529.13;;;13.88;44.28
19596;BME280;9945;46.010;8.946;2023-04-02T06:41:03;96525.28;;;14.05;44.34
19596;BME280;9945;46.010;8.946;2023-04-02T06:43:34;96536.66;;;14.27;42.89
19596;BME280;9945;46.010;8.946;2023-04-02T06:46:08;96540.03;;;14.63;41.77
19596;BME280;9945;46.010;8.946;2023-04-02T06:48:40;96536.88;;;14.96;41.96
19596;BME280;9945;46.010;8.946;2023-04-02T06:51:10;96537.94;;;15.36;40.41
19596;BME280;9945;46.010;8.946;2023-04-02T06:53:42;96539.91;;;15.55;37.91
19596;BME280;9945;46.010;8.946;2023-04-02T06:56:19;96533.94;;;15.81;38.69
19596;BME280;9945;46.010;8.946;2023-04-02T06:58:47;96540.31;;;16.06;39.68
19596;BME280;9945;46.010;8.946;2023-04-02T07:01:15;96544.41;;;16.35;37.68
19596;BME280;9945;46.010;8.946;2023-04-02T07:03:43;96539.81;;;16.63;37.66
19596;BME280;9945;46.010;8.946;2023-04-02T07:06:14;96549.97;;;16.93;35.86
19596;BME280;9945;46.010;8.946;2023-04-02T07:08:41;96547.75;;;17.03;36.86
19596;BME280;9945;46.010;8.946;2023-04-02T07:11:12;96552.59;;;17.19;35.64
19596;BME280;9945;46.010;8.946;2023-04-02T07:13:39;96553.84;;;17.17;34.69
19596;BME280;9945;46.010;8.946;2023-04-02T07:16:13;96550.78;;;17.20;36.02
19596;BME280;9945;46.010;8.946;2023-04-02T07:18:41;96551.19;;;17.10;34.77
19596;BME280;9945;46.010;8.946;2023-04-02T07:21:08;96549.31;;;17.37;35.44
19596;BME280;9945;46.010;8.946;2023-04-02T07:23:35;96555.78;;;17.54;35.81
19596;BME280;9945;46.010;8.946;2023-04-02T07:26:03;96542.97;;;17.64;36.33
19596;BME280;9945;46.010;8.946;2023-04-02T07:28:32;96546.44;;;17.65;33.73
19596;BME280;9945;46.010;8.946;2023-04-02T07:30:59;96551.28;;;17.74;35.80
19596;BME280;9945;46.010;8.946;2023-04-02T07:33:28;96549.03;;;17.85;34.63
19596;BME280;9945;46.010;8.946;2023-04-02T07:35:56;96546.38;;;17.78;33.21
19596;BME280;9945;46.010;8.946;2023-04-02T07:38:24;96548.00;;;17.79;33.60
19596;BME280;9945;46.010;8.946;2023-04-02T07:40:50;96554.69;;;17.88;33.75
19596;BME280;9945;46.010;8.946;2023-04-02T07:43:17;96553.22;;;17.99;33.07
19596;BME280;9945;46.010;8.946;2023-04-02T07:45:45;96552.41;;;17.98;33.30
19596;BME280;9945;46.010;8.946;2023-04-02T07:48:13;96551.16;;;18.07;30.50
19596;BME280;9945;46.010;8.946;2023-04-02T07:50:40;96559.03;;;18.21;30.95
19596;BME280;9945;46.010;8.946;2023-04-02T07:53:17;96558.38;;;18.32;31.20
19596;BME280;9945;46.010;8.946;2023-04-02T07:55:52;96553.13;;;18.57;30.95
19596;BME280;9945;46.010;8.946;2023-04-02T07:58:18;96553.38;;;18.80;30.93
19596;BME280;9945;46.010;8.946;2023-04-02T08:00:47;96564.72;;;18.94;32.54
19596;BME280;9945;46.010;8.946;2023-04-02T08:03:13;96554.69;;;18.96;27.82
19596;BME280;9945;46.010;8.946;2023-04-02T08:05:41;96561.63;;;18.97;31.95
19596;BME280;9945;46.010;8.946;2023-04-02T08:08:07;96558.38;;;18.95;29.90
19596;BME280;9945;46.010;8.946;2023-04-02T08:10:34;96557.66;;;19.06;27.18
19596;BME280;9945;46.010;8.946;2023-04-02T08:13:01;96565.31;;;19.20;29.63
19596;BME280;9945;46.010;8.946;2023-04-02T08:15:28;96560.56;;;19.22;31.03
19596;BME280;9945;46.010;8.946;2023-04-02T08:17:56;96565.84;;;19.29;29.83
19596;BME280;9945;46.010;8.946;2023-04-02T08:20:23;96568.75;;;19.46;28.52
19596;BME280;9945;46.010;8.946;2023-04-02T08:22:50;96569.59;;;19.64;26.61
19596;BME280;9945;46.010;8.946;2023-04-02T08:25:17;96579.34;;;19.71;30.40
19596;BME280;9945;46.010;8.946;2023-04-02T08:27:45;96566.56;;;19.79;26.69
19596;BME280;9945;46.010;8.946;2023-04-02T08:30:13;96573.72;;;19.97;29.79
19596;BME280;9945;46.010;8.946;2023-04-02T08:32:40;96574.16;;;19.94;27.24
19596;BME280;9945;46.010;8.946;2023-04-02T08:35:10;96564.94;;;20.15;24.24
19596;BME280;9945;46.010;8.946;2023-04-02T08:37:37;96574.28;;;20.35;24.12
19596;BME280;9945;46.010;8.946;2023-04-02T08:40:06;96571.84;;;20.64;25.23
19596;BME280;9945;46.010;8.946;2023-04-02T08:42:38;96564.94;;;20.74;27.60
19596;BME280;9945;46.010;8.946;2023-04-02T08:45:17;96572.13;;;20.86;26.12
19596;BME280;9945;46.010;8.946;2023-04-02T08:47:47;96573.06;;;21.03;23.11
19596;BME280;9945;46.010;8.946;2023-04-02T08:50:25;96572.88;;;21.28;24.63
19596;BME280;9945;46.010;8.946;2023-04-02T08:52:53;96574.97;;;21.61;25.22
19596;BME280;9945;46.010;8.946;2023-04-02T08:55:30;96585.31;;;22.20;23.12
19596;BME280;9945;46.010;8.946;2023-04-02T08:58:04;96581.84;;;22.48;21.51
19596;BME280;9945;46.010;8.946;2023-04-02T09:00:38;96579.94;;;22.89;21.56
19596;BME280;9945;46.010;8.946;2023-04-02T09:03:09;96574.59;;;23.22;21.21
19596;BME280;9945;46.010;8.946;2023-04-02T09:05:40;96588.59;;;23.80;20.28
19596;BME280;9945;46.010;8.946;2023-04-02T09:08:16;96574.53;;;24.55;18.83
19596;BME280;9945;46.010;8.946;2023-04-02T09:10:50;96581.13;;;25.65;18.59
19596;BME280;9945;46.010;8.946;2023-04-02T09:13:22;96581.00;;;26.54;18.06
19596;BME280;9945;46.010;8.946;2023-04-02T09:15:54;96590.78;;;27.56;17.01
19596;BME280;9945;46.010;8.946;2023-04-02T09:18:22;96585.75;;;28.39;16.50
19596;BME280;9945;46.010;8.946;2023-04-02T09:20:50;96589.63;;;29.11;15.73
19596;BME280;9945;46.010;8.946;2023-04-02T09:23:19;96587.22;;;29.72;15.35
19596;BME280;9945;46.010;8.946;2023-04-02T09:25:48;96593.88;;;30.33;15.23
19596;BME280;9945;46.010;8.946;2023-04-02T09:28:17;96594.25;;;30.88;14.60
19596;BME280;9945;46.010;8.946;2023-04-02T09:31:04;96586.91;;;31.58;14.92
19596;BME280;9945;46.010;8.946;2023-04-02T09:33:42;96594.72;;;32.06;13.83
19596;BME280;9945;46.010;8.946;2023-04-02T09:36:24;96592.75;;;32.39;13.27
19596;BME280;9945;46.010;8.946;2023-04-02T09:39:00;96595.47;;;32.88;13.52
19596;BME280;9945;46.010;8.946;2023-04-02T09:41:32;96587.47;;;33.41;13.43
19596;BME280;9945;46.010;8.946;2023-04-02T09:44:17;96596.75;;;34.02;12.12
19596;BME280;9945;46.010;8.946;2023-04-02T09:46:51;96597.81;;;34.24;12.59
19596;BME280;9945;46.010;8.946;2023-04-02T09:49:22;96601.91;;;34.61;11.91
19596;BME280;9945;46.010;8.946;2023-04-02T09:52:25;96599.91;;;35.18;11.35
19596;BME280;9945;46.010;8.946;2023-04-02T09:55:17;96591.72;;;35.44;11.57
19596;BME280;9945;46.010;8.946;2023-04-02T09:57:45;96598.88;;;35.65;10.86
19596;BME280;9945;46.010;8.946;2023-04-02T10:00:19;96597.31;;;36.20;10.98
19596;BME280;9945;46.010;8.946;2023-04-02T10:03:00;96605.06;;;36.47;10.54
19596;BME280;9945;46.010;8.946;2023-04-02T10:05:29;96599.00;;;36.71;10.56
19596;BME280;9945;46.010;8.946;2023-04-02T10:08:08;96612.72;;;37.04;10.99
19596;BME280;9945;46.010;8.946;2023-04-02T10:10:38;96608.84;;;37.46;10.28
19596;BME280;9945;46.010;8.946;2023-04-02T10:13:16;96597.53;;;38.14;10.17
19596;BME280;9945;46.010;8.946;2023-04-02T10:15:49;96600.03;;;38.31;9.64
19596;BME280;9945;46.010;8.946;2023-04-02T10:18:22;96608.34;;;38.83;9.60
19596;BME280;9945;46.010;8.946;2023-04-02T10:20:54;96600.56;;;39.38;9.98
19596;BME280;9945;46.010;8.946;2023-04-02T10:23:27;96602.59;;;39.53;9.40
19596;BME280;9945;46.010;8.946;2023-04-02T10:26:03;96600.28;;;40.14;8.98
19596;BME280;9945;46.010;8.946;2023-04-02T10:28:47;96605.03;;;40.64;8.30
19596;BME280;9945;46.010;8.946;2023-04-02T10:31:22;96607.41;;;41.16;8.23
19596;BME280;9945;46.010;8.946;2023-04-02T10:33:56;96610.81;;;41.68;9.69
19596;BME280;9945;46.010;8.946;2023-04-02T10:36:39;96606.25;;;41.56;7.66
19596;BME280;9945;46.010;8.946;2023-04-02T10:39:15;96608.00;;;42.06;7.71
19596;BME280;9945;46.010;8.946;2023-04-02T10:41:50;96614.13;;;42.68;7.78
19596;BME280;9945;46.010;8.946;2023-04-02T10:44:31;96603.09;;;42.68;7.87
19596;BME280;9945;46.010;8.946;2023-04-02T10:47:15;96614.22;;;43.31;8.16
19596;BME280;9945;46.010;8.946;2023-04-02T10:49:51;96611.53;;;44.05;7.17
19596;BME280;9945;46.010;8.946;2023-04-02T10:52:24;96623.53;;;44.27;7.44
19596;BME280;9945;46.010;8.946;2023-04-02T10:54:55;96609.44;;;44.91;6.99
19596;BME280;9945;46.010;8.946;2023-04-02T10:57:31;96611.56;;;45.18;6.90
19596;BME280;9945;46.010;8.946;2023-04-02T11:00:06;96616.22;;;46.08;6.26
19596;BME280;9945;46.010;8.946;2023-04-02T11:02:38;96609.34;;;45.52;5.75
19596;BME280;9945;46.010;8.946;2023-04-02T11:05:19;96617.84;;;46.27;5.76
19596;BME280;9945;46.010;8.946;2023-04-02T11:08:01;96607.09;;;46.04;6.06
19596;BME280;9945;46.010;8.946;2023-04-02T11:10:33;96609.88;;;46.11;6.36
19596;BME280;9945;46.010;8.946;2023-04-02T11:13:07;96611.09;;;46.10;5.43
19596;BME280;9945;46.010;8.946;2023-04-02T11:15:37;96612.84;;;47.48;5.93
19596;BME280;9945;46.010;8.946;2023-04-02T11:18:05;96602.28;;;47.11;5.13
19596;BME280;9945;46.010;8.946;2023-04-02T11:20:58;96616.91;;;47.22;5.36
19596;BME280;9945;46.010;8.946;2023-04-02T11:23:34;96605.44;;;47.13;5.25
19596;BME280;9945;46.010;8.946;2023-04-02T11:26:35;96609.06;;;45.96;5.67
19596;BME280;9945;46.010;8.946;2023-04-02T11:29:25;96605.06;;;45.76;5.74
19596;BME280;9945;46.010;8.946;2023-04-02T11:35:26;96596.34;;;45.64;6.35
19596;BME280;9945;46.010;8.946;2023-04-02T11:37:54;96618.25;;;46.25;5.93
19596;BME280;9945;46.010;8.946;2023-04-02T11:40:52;96605.13;;;46.79;5.73
19596;BME280;9945;46.010;8.946;2023-04-02T11:43:49;96601.75;;;47.48;5.62
19596;BME280;9945;46.010;8.946;2023-04-02T11:46:44;96607.53;;;47.82;5.38
19596;BME280;9945;46.010;8.946;2023-04-02T11:49:36;96605.50;;;48.86;5.10
19596;BME280;9945;46.010;8.946;2023-04-02T11:52:18;96601.34;;;48.19;5.58
19596;BME280;9945;46.010;8.946;2023-04-02T11:54:54;96599.34;;;49.05;4.46
19596;BME280;9945;46.010;8.946;2023-04-02T11:57:32;96599.97;;;49.54;4.65
19596;BME280;9945;46.010;8.946;2023-04-02T12:00:18;96591.22;;;44.31;6.09
19596;BME280;9945;46.010;8.946;2023-04-02T12:02:58;96586.47;;;40.42;8.08
19596;BME280;9945;46.010;8.946;2023-04-02T12:05:32;96593.00;;;42.76;6.85
19596;BME280;9945;46.010;8.946;2023-04-02T12:08:19;96599.81;;;41.90;7.53
19596;BME280;9945;46.010;8.946;2023-04-02T12:10:53;96597.31;;;42.50;7.34
19596;BME280;9945;46.010;8.946;2023-04-02T12:13:48;96595.44;;;44.15;6.21
19596;BME280;9945;46.010;8.946;2023-04-02T12:16:16;96590.97;;;40.66;7.71
19596;BME280;9945;46.010;8.946;2023-04-02T12:18:45;96584.09;;;36.60;10.30
19596;BME280;9945;46.010;8.946;2023-04-02T12:21:16;96579.31;;;33.41;12.59
19596;BME280;9945;46.010;8.946;2023-04-02T12:23:44;96581.91;;;30.39;13.29
19596;BME280;9945;46.010;8.946;2023-04-02T12:26:31;96578.81;;;29.16;13.27
19596;BME280;9945;46.010;8.946;2023-04-02T12:29:23;96574.63;;;27.81;14.32
19596;BME280;9945;46.010;8.946;2023-04-02T12:31:51;96573.06;;;27.20;15.46
19596;BME280;9945;46.010;8.946;2023-04-02T12:34:20;96574.34;;;26.04;16.25
19596;BME280;9945;46.010;8.946;2023-04-02T12:36:55;96576.69;;;25.43;17.69
19596;BME280;9945;46.010;8.946;2023-04-02T12:39:24;96567.91;;;26.78;16.65
19596;BME280;9945;46.010;8.946;2023-04-02T12:41:51;96577.25;;;31.84;13.36
19596;BME280;9945;46.010;8.946;2023-04-02T12:44:19;96577.44;;;34.21;11.76
19596;BME280;9945;46.010;8.946;2023-04-02T12:46:49;96587.47;;;32.69;13.02
19596;BME280;9945;46.010;8.946;2023-04-02T12:49:27;96578.03;;;31.85;14.27
19596;BME280;9945;46.010;8.946;2023-04-02T12:51:56;96578.19;;;34.35;13.52
19596;BME280;9945;46.010;8.946;2023-04-02T12:54:24;96579.25;;;34.91;12.69
19596;BME280;9945;46.010;8.946;2023-04-02T12:56:51;96580.31;;;34.07;11.93
19596;BME280;9945;46.010;8.946;2023-04-02T12:59:32;96568.84;;;34.76;12.78
19596;BME280;9945;46.010;8.946;2023-04-02T13:02:13;96572.53;;;33.84;13.42
19596;BME280;9945;46.010;8.946;2023-04-02T13:04:46;96576.97;;;32.41;15.42
19596;BME280;9945;46.010;8.946;2023-04-02T13:07:15;96565.22;;;29.26;17.69
19596;BME280;9945;46.010;8.946;2023-04-02T13:09:45;96563.63;;;27.58;19.64
19596;BME280;9945;46.010;8.946;2023-04-02T13:12:24;96570.34;;;26.07;22.54
19596;BME280;9945;46.010;8.946;2023-04-02T13:14:53;96565.13;;;25.43;23.08
19596;BME280;9945;46.010;8.946;2023-04-02T13:17:43;96562.81;;;24.17;24.54
19596;BME280;9945;46.010;8.946;2023-04-02T13:20:29;96561.72;;;23.91;25.02
19596;BME280;9945;46.010;8.946;2023-04-02T13:22:56;96555.81;;;23.89;24.94
19596;BME280;9945;46.010;8.946;2023-04-02T13:25:27;96565.41;;;24.07;24.53
19596;BME280;9945;46.010;8.946;2023-04-02T13:27:55;96563.50;;;23.47;25.33
19596;BME280;9945;46.010;8.946;2023-04-02T13:30:24;96547.00;;;23.50;24.70
19596;BME280;9945;46.010;8.946;2023-04-02T13:32:53;96543.31;;;23.39;25.19
19596;BME280;9945;46.010;8.946;2023-04-02T13:35:20;96547.19;;;23.10;25.02
19596;BME280;9945;46.010;8.946;2023-04-02T13:37:47;96541.97;;;23.37;24.92
19596;BME280;9945;46.010;8.946;2023-04-02T13:40:15;96552.56;;;23.49;24.86
19596;BME280;9945;46.010;8.946;2023-04-02T13:42:44;96541.94;;;23.70;25.15
19596;BME280;9945;46.010;8.946;2023-04-02T13:45:20;96550.06;;;23.42;23.97
19596;BME280;9945;46.010;8.946;2023-04-02T13:47:48;96553.25;;;23.39;24.34